createdAt,value
2019-04-04T00:01:42.081Z,24.77
2019-04-04T00:04:21.847Z,28.93
2019-04-04T00:06:57.993Z,34.57
2019-04-04T00:09:28.410Z,34.23
2019-04-04T00:11:59.441Z,27.90
2019-04-04T00:14:30.705Z,29.60
2019-04-04T00:17:01.517Z,41.27
2019-04-04T00:19:32.803Z,25.20
2019-04-04T00:22:04.953Z,30.47
2019-04-04T00:24:39.614Z,27.80
2019-04-04T00:27:13.358Z,27.73
2019-04-04T00:29:45.953Z,32.60
2019-04-04T00:32:23.987Z,27.13
2019-04-04T00:34:55.410Z,31.40
2019-04-04T00:37:25.951Z,30.67
2019-04-04T00:39:58.078Z,33.57
2019-04-04T00:42:29.453Z,29.70
2019-04-04T00:45:05.999Z,27.60
2019-04-04T00:47:36.475Z,27.67
2019-04-04T00:50:07.862Z,28.43
2019-04-04T00:52:40.737Z,31.63
2019-04-04T00:55:11.605Z,30.07
2019-04-04T00:57:42.335Z,30.33
2019-04-04T01:00:15.458Z,27.47
2019-04-04T01:02:46.277Z,25.37
2019-04-04T01:05:16.784Z,22.60
2019-04-04T01:07:48.132Z,36.43
2019-04-04T01:10:19.523Z,23.73
2019-04-04T01:12:52.786Z,26.80
2019-04-04T01:15:25.047Z,26.53
2019-04-04T01:17:57.900Z,28.53
2019-04-04T01:20:50.381Z,38.03
2019-04-04T01:23:19.966Z,21.60
2019-04-04T01:25:50.623Z,35.17
2019-04-04T01:28:21.661Z,20.23
2019-04-04T01:30:55.550Z,17.33
2019-04-04T01:33:28.721Z,19.00
2019-04-04T01:36:00.267Z,15.87
2019-04-04T01:38:30.800Z,17.53
2019-04-04T01:41:05.196Z,16.53
2019-04-04T01:43:36.194Z,27.20
2019-04-04T01:46:07.429Z,15.73
2019-04-04T01:48:37.949Z,15.60
2019-04-04T01:51:08.432Z,16.97
2019-04-04T01:53:44.640Z,22.97
2019-04-04T01:56:15.218Z,14.63
2019-04-04T01:58:46.220Z,14.40
2019-04-04T02:01:18.770Z,21.20
2019-04-04T02:03:49.594Z,19.00
2019-04-04T02:06:22.523Z,21.83
2019-04-04T02:08:53.554Z,12.30
2019-04-04T02:11:24.498Z,24.00
2019-04-04T02:13:54.936Z,12.47
2019-04-04T02:16:27.417Z,12.03
2019-04-04T02:19:06.286Z,22.47
2019-04-04T02:21:39.103Z,14.27
2019-04-04T02:24:10.384Z,15.17
2019-04-04T02:26:41.360Z,14.80
2019-04-04T02:29:13.640Z,15.33
2019-04-04T02:31:54.523Z,13.93
2019-04-04T02:34:28.657Z,17.47
2019-04-04T02:37:03.626Z,17.10
2019-04-04T02:39:35.360Z,14.47
2019-04-04T02:42:08.013Z,16.83
2019-04-04T02:44:38.922Z,14.27
2019-04-04T02:47:09.778Z,13.30
2019-04-04T02:49:41.340Z,16.53
2019-04-04T02:52:13.300Z,14.40
2019-04-04T02:54:44.116Z,14.80
2019-04-04T02:57:17.332Z,17.93
2019-04-04T02:59:56.332Z,28.00
2019-04-04T03:02:26.719Z,18.23
2019-04-04T03:04:57.508Z,15.80
2019-04-04T03:07:30.929Z,25.07
2019-04-04T03:10:00.549Z,16.83
2019-04-04T03:12:31.230Z,16.33
2019-04-04T03:15:02.781Z,16.97
2019-04-04T03:17:33.479Z,19.40
2019-04-04T03:20:04.117Z,19.17
2019-04-04T03:22:34.609Z,20.80
2019-04-04T03:25:08.358Z,20.70
2019-04-04T03:27:39.294Z,21.40
2019-04-04T03:30:17.862Z,35.57
2019-04-04T03:32:54.467Z,25.07
2019-04-04T03:35:27.901Z,23.10
2019-04-04T03:37:59.374Z,25.53
2019-04-04T03:40:29.988Z,26.17
2019-04-04T03:43:00.404Z,25.17
2019-04-04T03:45:31.402Z,24.87
2019-04-04T03:48:01.899Z,26.23
2019-04-04T03:50:33.571Z,26.23
2019-04-04T03:53:06.524Z,25.33
2019-04-04T03:55:37.117Z,26.17
2019-04-04T03:58:09.287Z,38.30
2019-04-04T04:00:40.608Z,26.93
2019-04-04T04:03:15.589Z,42.30
2019-04-04T04:05:47.291Z,26.90
2019-04-04T04:08:20.969Z,39.17
2019-04-04T04:10:50.033Z,24.40
2019-04-04T04:13:21.963Z,26.03
2019-04-04T04:15:52.373Z,27.40
2019-04-04T04:18:23.097Z,27.43
2019-04-04T04:20:55.769Z,24.73
2019-04-04T04:23:26.271Z,45.07
2019-04-04T04:26:01.616Z,26.50
2019-04-04T04:28:32.406Z,28.27
2019-04-04T04:31:06.430Z,25.87
2019-04-04T04:33:37.192Z,28.23
2019-04-04T04:36:10.045Z,27.70
2019-04-04T04:38:40.977Z,30.13
2019-04-04T04:41:11.839Z,35.47
2019-04-04T04:43:45.695Z,40.13
2019-04-04T04:46:17.807Z,41.43
2019-04-04T04:48:48.975Z,34.67
2019-04-04T04:51:20.197Z,49.80
2019-04-04T04:53:51.306Z,32.73
2019-04-04T04:56:26.518Z,32.77
2019-04-04T04:58:55.634Z,37.20
2019-04-04T05:01:26.467Z,34.83
2019-04-04T05:03:58.990Z,39.47
2019-04-04T05:06:35.607Z,32.80
2019-04-04T05:09:07.428Z,33.87
2019-04-04T05:11:38.184Z,33.17
2019-04-04T05:14:09.127Z,30.90
2019-04-04T05:16:40.814Z,29.53
2019-04-04T05:19:14.465Z,50.70
2019-04-04T05:22:03.900Z,31.70
2019-04-04T05:24:36.574Z,33.30
2019-04-04T05:27:11.594Z,35.10
2019-04-04T05:29:48.168Z,36.13
2019-04-04T05:32:20.899Z,41.13
2019-04-04T05:34:53.409Z,42.60
2019-04-04T05:37:27.496Z,37.67
2019-04-04T05:39:58.946Z,41.37
2019-04-04T05:42:32.859Z,41.23
2019-04-04T05:45:01.958Z,39.77
2019-04-04T05:47:34.982Z,44.40
2019-04-04T05:50:11.033Z,66.57
2019-04-04T05:52:39.196Z,43.67
2019-04-04T05:55:12.737Z,47.23
2019-04-04T05:57:43.752Z,48.93
2019-04-04T06:00:18.312Z,50.33
2019-04-04T06:02:49.496Z,49.17
2019-04-04T06:05:23.071Z,50.63
2019-04-04T06:07:55.122Z,79.20
2019-04-04T06:10:28.863Z,50.33
2019-04-04T06:12:59.724Z,79.67
2019-04-04T06:15:32.167Z,50.67
2019-04-04T06:18:05.898Z,43.70
2019-04-04T06:20:38.552Z,40.43
2019-04-04T06:23:09.207Z,35.67
2019-04-04T06:25:39.719Z,37.20
2019-04-04T06:28:12.002Z,43.07
2019-04-04T06:30:43.797Z,42.53
2019-04-04T06:33:16.536Z,40.73
2019-04-04T06:35:48.639Z,44.47
2019-04-04T06:38:23.082Z,43.77
2019-04-04T06:40:51.760Z,40.87
2019-04-04T06:43:22.563Z,41.43
2019-04-04T06:45:53.489Z,39.70
2019-04-04T06:48:24.269Z,39.17
2019-04-04T06:50:55.540Z,41.87
2019-04-04T06:53:36.809Z,38.03
2019-04-04T06:56:14.341Z,41.53
2019-04-04T06:58:48.865Z,58.20
2019-04-04T07:01:21.901Z,39.60
2019-04-04T07:03:52.921Z,41.83
2019-04-04T07:06:23.420Z,44.07
2019-04-04T07:08:57.829Z,51.77
2019-04-04T07:11:32.997Z,55.97
2019-04-04T07:14:04.664Z,55.97
2019-04-04T07:16:46.821Z,56.30
2019-04-04T07:19:28.876Z,58.30
2019-04-04T07:22:05.222Z,62.53
2019-04-04T07:27:38.747Z,62.70
2019-04-04T07:30:19.209Z,56.00
2019-04-04T07:32:50.609Z,61.80
2019-04-04T07:35:21.498Z,59.50
2019-04-04T07:37:57.682Z,55.37
2019-04-04T07:40:28.691Z,61.20
2019-04-04T07:43:00.941Z,88.40
2019-04-04T07:45:34.171Z,58.03
2019-04-04T07:48:06.395Z,58.87
2019-04-04T07:50:37.563Z,56.93
2019-04-04T07:53:11.270Z,56.73
2019-04-04T07:55:43.905Z,58.50
2019-04-04T07:58:20.153Z,52.87
2019-04-04T08:00:50.758Z,53.53
2019-04-04T08:03:24.688Z,55.40
2019-04-04T08:05:58.352Z,52.27
2019-04-04T08:08:35.540Z,45.30
2019-04-04T08:11:13.221Z,50.67
2019-04-04T08:13:43.343Z,48.63
2019-04-04T08:16:14.412Z,50.90
2019-04-04T08:18:44.919Z,50.63
2019-04-04T08:21:17.006Z,48.90
2019-04-04T08:23:51.407Z,49.40
2019-04-04T08:26:22.005Z,48.97
2019-04-04T08:28:52.748Z,50.77
2019-04-04T08:31:28.437Z,50.60
2019-04-04T08:34:02.083Z,48.37
2019-04-04T08:36:35.815Z,45.53
2019-04-04T08:39:10.145Z,45.17
2019-04-04T08:41:40.664Z,46.07
2019-04-04T08:44:11.146Z,41.80
2019-04-04T08:46:44.511Z,44.53
2019-04-04T08:49:15.197Z,43.30
2019-04-04T08:51:47.300Z,47.47
2019-04-04T08:54:18.454Z,45.60
2019-04-04T08:57:01.357Z,45.17
2019-04-04T08:59:32.029Z,48.50
2019-04-04T09:02:05.080Z,47.23
2019-04-04T09:04:41.627Z,41.47
2019-04-04T09:07:12.685Z,40.20
2019-04-04T09:09:45.215Z,45.90
2019-04-04T09:12:16.213Z,45.03
2019-04-04T09:14:47.740Z,43.20
2019-04-04T09:17:20.911Z,47.47
2019-04-04T09:19:51.770Z,41.40
2019-04-04T09:22:26.251Z,40.10
2019-04-04T09:24:57.359Z,41.23
2019-04-04T09:27:28.106Z,39.53
2019-04-04T09:29:58.681Z,40.83
2019-04-04T09:32:30.283Z,40.77
2019-04-04T09:35:00.979Z,41.73
2019-04-04T09:37:31.590Z,40.47
2019-04-04T09:40:02.101Z,40.33
2019-04-04T09:42:37.232Z,41.30
2019-04-04T09:45:08.594Z,40.80
2019-04-04T09:47:39.389Z,41.13
2019-04-04T09:50:18.323Z,45.30
2019-04-04T09:52:50.723Z,40.23
2019-04-04T09:55:23.933Z,43.13
2019-04-04T09:57:59.372Z,38.00
2019-04-04T10:00:29.776Z,57.40
2019-04-04T10:03:01.349Z,36.97
2019-04-04T10:05:31.881Z,36.93
2019-04-04T10:08:02.552Z,40.83
2019-04-04T10:10:33.366Z,38.03
2019-04-04T10:13:06.216Z,40.97
2019-04-04T10:15:39.687Z,38.67
2019-04-04T10:18:12.065Z,40.27
2019-04-04T10:20:43.370Z,39.70
2019-04-04T10:23:16.810Z,37.83
2019-04-04T10:25:50.573Z,39.47
2019-04-04T10:28:23.309Z,35.87
2019-04-04T10:30:53.508Z,34.93
2019-04-04T10:33:24.244Z,35.93
2019-04-04T10:35:54.716Z,40.37
2019-04-04T10:38:48.386Z,37.30
2019-04-04T10:41:18.838Z,36.23
2019-04-04T10:43:49.795Z,39.63
2019-04-04T10:46:20.155Z,40.90
2019-04-04T10:48:51.120Z,43.13
2019-04-04T10:51:22.194Z,41.50
2019-04-04T10:53:54.122Z,46.90
2019-04-04T10:56:26.961Z,40.67
2019-04-04T10:58:59.146Z,41.43
2019-04-04T11:01:29.639Z,40.73
2019-04-04T11:04:00.205Z,39.67
2019-04-04T11:06:33.061Z,40.17
2019-04-04T11:09:04.244Z,43.10
2019-04-04T11:11:34.923Z,40.03
2019-04-04T11:14:05.454Z,41.60
2019-04-04T11:16:35.825Z,43.33
2019-04-04T11:19:09.567Z,43.03
2019-04-04T11:21:39.462Z,42.20
2019-04-04T11:24:09.829Z,42.90
2019-04-04T11:26:40.266Z,45.53
2019-04-04T11:29:11.159Z,40.13
2019-04-04T11:31:41.531Z,43.60
2019-04-04T11:34:11.982Z,44.27
2019-04-04T11:36:42.709Z,38.63
2019-04-04T11:39:13.175Z,43.80
2019-04-04T11:41:43.601Z,42.87
2019-04-04T11:44:14.016Z,39.23
2019-04-04T11:46:44.648Z,43.63
2019-04-04T11:49:15.392Z,42.67
2019-04-04T11:51:49.172Z,41.27
2019-04-04T11:54:19.961Z,43.73
2019-04-04T11:56:50.404Z,39.53
2019-04-04T11:59:24.272Z,40.97
2019-04-04T12:01:55.998Z,41.97
2019-04-04T12:04:26.497Z,47.03
2019-04-04T12:06:56.862Z,42.50
2019-04-04T12:09:27.783Z,41.03
2019-04-04T12:11:58.625Z,43.17
2019-04-04T12:14:29.069Z,40.00
2019-04-04T12:16:59.500Z,42.80
2019-04-04T12:19:31.336Z,39.67
2019-04-04T12:22:01.739Z,40.00
2019-04-04T12:24:35.260Z,36.77
2019-04-04T12:27:05.687Z,37.20
2019-04-04T12:29:36.074Z,44.50
2019-04-04T12:32:06.599Z,38.33
2019-04-04T12:34:36.958Z,41.53
2019-04-04T12:37:07.409Z,38.17
2019-04-04T12:39:41.180Z,34.70
2019-04-04T12:42:11.940Z,36.47
2019-04-04T12:44:42.272Z,35.67
2019-04-04T12:47:12.664Z,31.57
2019-04-04T12:49:43.120Z,36.37
2019-04-04T12:52:13.886Z,32.27
2019-04-04T12:54:44.694Z,35.33
2019-04-04T12:57:15.441Z,34.60
2019-04-04T12:59:47.539Z,30.13
2019-04-04T13:02:18.213Z,30.30
2019-04-04T13:04:48.587Z,32.57
2019-04-04T13:07:19.186Z,27.43
2019-04-04T13:09:49.489Z,29.27
2019-04-04T13:12:19.913Z,27.13
2019-04-04T13:14:50.673Z,24.53
2019-04-04T13:17:24.580Z,27.93
2019-04-04T13:19:54.963Z,24.83
2019-04-04T13:22:25.803Z,22.80
2019-04-04T13:24:56.745Z,22.17
2019-04-04T13:27:29.110Z,21.63
2019-04-04T13:30:00.072Z,20.67
2019-04-04T13:32:30.802Z,20.97
2019-04-04T13:35:04.853Z,18.27
2019-04-04T13:37:33.319Z,17.33
2019-04-04T13:40:03.760Z,19.27
2019-04-04T13:42:34.362Z,17.23
2019-04-04T13:45:05.628Z,17.67
2019-04-04T13:47:39.240Z,11.83
2019-04-04T13:50:12.421Z,11.83
2019-04-04T13:52:43.125Z,10.93
2019-04-04T13:55:13.869Z,11.27
2019-04-04T13:57:45.446Z,11.87
2019-04-04T14:00:17.194Z,9.30
2019-04-04T14:02:48.359Z,10.23
2019-04-04T14:05:20.062Z,8.50
2019-04-04T14:07:51.972Z,8.27
2019-04-04T14:10:22.518Z,7.07
2019-04-04T14:12:52.968Z,6.63
2019-04-04T14:15:42.484Z,6.10
2019-04-04T14:18:22.842Z,10.20
2019-04-04T14:21:03.270Z,6.73
2019-04-04T14:23:28.182Z,7.20
2019-04-04T14:26:00.047Z,7.57
2019-04-04T14:28:30.936Z,5.87
2019-04-04T14:31:01.879Z,6.33
2019-04-04T14:33:32.538Z,9.00
2019-04-04T14:36:03.114Z,10.20
2019-04-04T14:38:34.050Z,6.43
2019-04-04T14:41:11.610Z,9.47
2019-04-04T14:43:41.957Z,6.83
2019-04-04T14:46:13.007Z,7.37
2019-04-04T14:48:43.397Z,7.53
2019-04-04T14:51:13.756Z,6.83
2019-04-04T14:53:44.130Z,9.47
2019-04-04T14:56:14.804Z,10.80
2019-04-04T14:58:45.530Z,7.43
2019-04-04T15:01:16.673Z,8.60
2019-04-04T15:03:47.165Z,7.23
2019-04-04T15:07:05.238Z,9.00
2019-04-04T15:09:52.166Z,7.43
2019-04-04T15:12:22.638Z,8.77
2019-04-04T15:14:53.464Z,10.63
2019-04-04T15:17:23.932Z,9.43
2019-04-04T15:19:54.296Z,9.13
2019-04-04T15:22:24.738Z,8.30
2019-04-04T15:24:55.142Z,9.00
2019-04-04T15:27:25.662Z,8.57
2019-04-04T15:29:56.035Z,8.40
2019-04-04T15:32:26.417Z,10.17
2019-04-04T15:35:11.517Z,10.77
2019-04-04T15:38:02.977Z,13.70
2019-04-04T15:40:34.009Z,8.40
2019-04-04T15:43:04.348Z,7.47
2019-04-04T15:45:35.981Z,9.17
2019-04-04T15:48:06.479Z,7.33
2019-04-04T15:50:37.041Z,9.20
2019-04-04T15:53:15.571Z,9.00
2019-04-04T15:55:46.108Z,9.33
2019-04-04T15:58:16.576Z,15.47
2019-04-04T16:00:47.357Z,10.67
2019-04-04T16:03:17.930Z,8.60
2019-04-04T16:05:48.967Z,10.47
2019-04-04T16:08:19.982Z,7.77
2019-04-04T16:10:50.541Z,8.77
2019-04-04T16:13:20.965Z,8.33
2019-04-04T16:15:51.396Z,13.33
2019-04-04T16:18:24.504Z,10.73
2019-04-04T16:20:55.361Z,14.20
2019-04-04T16:23:25.829Z,6.73
2019-04-04T16:25:56.275Z,6.63
2019-04-04T16:28:27.202Z,7.23
2019-04-04T16:30:57.843Z,11.20
2019-04-04T16:33:32.412Z,7.00
2019-04-04T16:36:05.292Z,8.37
2019-04-04T16:38:35.646Z,9.27
2019-04-04T16:41:06.175Z,7.47
2019-04-04T16:43:44.853Z,8.77
2019-04-04T16:46:26.229Z,8.70
2019-04-04T16:48:56.634Z,7.47
2019-04-04T16:51:27.670Z,7.63
2019-04-04T16:53:58.121Z,6.87
2019-04-04T16:56:28.764Z,8.70
2019-04-04T16:59:06.478Z,10.13
2019-04-04T17:01:37.615Z,8.00
2019-04-04T17:04:08.709Z,8.00
2019-04-04T17:06:39.036Z,6.60
2019-04-04T17:09:09.920Z,6.67
2019-04-04T17:11:40.468Z,12.00
2019-04-04T17:14:15.103Z,7.90
2019-04-04T17:16:45.220Z,8.20
2019-04-04T17:19:15.966Z,8.23
2019-04-04T17:21:48.307Z,8.10
2019-04-04T17:24:19.589Z,7.13
2019-04-04T17:26:49.979Z,7.27
2019-04-04T17:29:20.730Z,8.07
2019-04-04T17:31:51.522Z,12.50
2019-04-04T17:34:21.930Z,70.40
2019-04-04T17:36:52.293Z,70.70
2019-04-04T17:39:23.049Z,56.57
2019-04-04T17:41:53.822Z,59.97
2019-04-04T17:44:25.056Z,52.73
2019-04-04T17:46:56.284Z,46.53
2019-04-04T17:49:27.120Z,46.27
2019-04-04T17:51:57.582Z,44.67
2019-04-04T17:54:28.500Z,44.77
2019-04-04T17:56:59.374Z,55.87
2019-04-04T17:59:30.456Z,51.87
2019-04-04T18:02:04.875Z,59.83
2019-04-04T18:04:47.533Z,51.97
2019-04-04T18:07:07.863Z,49.40
2019-04-04T18:09:38.220Z,50.87
2019-04-04T18:12:09.032Z,51.67
2019-04-04T18:14:41.254Z,58.23
2019-04-04T18:17:14.884Z,58.63
2019-04-04T18:19:45.502Z,55.77
2019-04-04T18:22:16.271Z,56.23
2019-04-04T18:24:47.217Z,62.17
2019-04-04T18:27:18.004Z,60.50
2019-04-04T18:29:48.394Z,58.60
2019-04-04T18:32:18.913Z,55.27
2019-04-04T18:34:49.630Z,57.27
2019-04-04T18:37:20.072Z,60.13
2019-04-04T18:39:54.582Z,58.47
2019-04-04T18:42:25.092Z,57.13
2019-04-04T18:44:58.286Z,56.33
2019-04-04T18:47:29.120Z,55.73
2019-04-04T18:49:59.553Z,55.77
2019-04-04T18:52:30.070Z,56.80
2019-04-04T18:55:01.642Z,58.73
2019-04-04T18:57:31.990Z,57.23
2019-04-04T19:00:02.715Z,60.50
2019-04-04T19:02:34.053Z,57.17
2019-04-04T19:05:04.907Z,57.07
2019-04-04T19:07:39.726Z,52.80
2019-04-04T19:10:12.394Z,60.07
2019-04-04T19:12:42.959Z,56.87
2019-04-04T19:15:16.964Z,54.53
2019-04-04T19:17:47.447Z,84.83
2019-04-04T19:20:19.842Z,54.03
2019-04-04T19:22:52.129Z,52.93
2019-04-04T19:25:23.249Z,56.60
2019-04-04T19:27:54.116Z,49.97
2019-04-04T19:30:24.778Z,52.97
2019-04-04T19:32:55.665Z,52.83
2019-04-04T19:35:27.757Z,52.33
2019-04-04T19:38:01.535Z,80.00
2019-04-04T19:40:32.373Z,54.00
2019-04-04T19:43:02.796Z,53.20
2019-04-04T19:45:33.764Z,54.87
2019-04-04T19:48:08.787Z,59.53
2019-04-04T19:50:53.002Z,54.13
2019-04-04T19:53:24.325Z,84.80
2019-04-04T19:56:04.163Z,55.40
2019-04-04T19:59:15.089Z,89.83
2019-04-04T20:02:11.636Z,59.10
2019-04-04T20:04:47.593Z,62.63
2019-04-04T20:07:23.698Z,62.00
2019-04-04T20:09:54.232Z,60.63
2019-04-04T20:12:29.209Z,59.17
2019-04-04T20:15:00.112Z,64.43
2019-04-04T20:17:42.037Z,55.40
2019-04-04T20:20:14.207Z,62.23
2019-04-04T20:22:54.538Z,70.33
2019-04-04T20:25:26.098Z,66.17
2019-04-04T20:28:02.147Z,69.17
2019-04-04T20:30:55.366Z,110.20
2019-04-04T20:33:27.864Z,62.83
2019-04-04T20:36:00.439Z,105.10
2019-04-04T20:38:31.709Z,70.40
2019-04-04T20:41:07.925Z,69.00
2019-04-04T20:43:43.596Z,74.03
2019-04-04T20:46:17.923Z,68.07
2019-04-04T20:49:00.841Z,71.37
2019-04-04T20:51:40.851Z,79.30
2019-04-04T20:54:44.654Z,71.03
2019-04-04T20:57:41.495Z,78.53
2019-04-04T21:00:18.063Z,71.67
2019-04-04T21:02:52.461Z,77.80
2019-04-04T21:05:23.442Z,118.00
2019-04-04T21:07:53.979Z,78.40
2019-04-04T21:10:39.069Z,77.53
2019-04-04T21:13:35.833Z,77.87
2019-04-04T21:16:07.450Z,75.30
2019-04-04T21:18:41.788Z,78.33
2019-04-04T21:21:21.899Z,77.13
2019-04-04T21:23:54.242Z,81.87
2019-04-04T21:26:27.894Z,86.33
2019-04-04T21:28:59.875Z,80.03
2019-04-04T21:31:40.798Z,89.87
2019-04-04T21:34:11.658Z,138.73
2019-04-04T21:36:46.461Z,87.93
2019-04-04T21:39:19.890Z,89.40
2019-04-04T21:41:52.289Z,89.23
2019-04-04T21:44:24.196Z,144.40
2019-04-04T21:46:55.057Z,91.83
2019-04-04T21:49:25.716Z,98.87
2019-04-04T21:52:02.234Z,101.70
2019-04-04T21:54:32.582Z,96.33
2019-04-04T21:57:05.743Z,97.63
2019-04-04T21:59:36.429Z,96.17
2019-04-04T22:02:07.377Z,155.83
2019-04-04T22:04:37.984Z,98.40
2019-04-04T22:07:10.567Z,103.10
2019-04-04T22:09:48.913Z,101.67
2019-04-04T22:12:20.099Z,106.33
2019-04-04T22:14:50.694Z,103.37
2019-04-04T22:17:21.172Z,105.33
2019-04-04T22:19:51.800Z,148.67
2019-04-04T22:22:28.371Z,106.77
2019-04-04T22:24:59.292Z,100.10
2019-04-04T22:27:30.301Z,95.23
2019-04-04T22:30:00.849Z,98.37
2019-04-04T22:32:34.678Z,98.83
2019-04-04T22:35:07.049Z,100.60
2019-04-04T22:37:37.452Z,150.90
2019-04-04T22:40:08.012Z,100.63
2019-04-04T22:42:44.183Z,103.27
2019-04-04T22:45:14.838Z,99.77
2019-04-04T22:47:45.465Z,98.63
2019-04-04T22:50:16.104Z,103.40
2019-04-04T22:52:49.194Z,162.30
2019-04-04T22:55:19.895Z,108.57
2019-04-04T22:57:52.982Z,102.00
2019-04-04T23:00:26.489Z,109.50
2019-04-04T23:02:57.858Z,143.57
2019-04-04T23:05:31.565Z,102.47
2019-04-04T23:08:04.152Z,97.77
2019-04-04T23:10:38.378Z,149.53
2019-04-04T23:13:08.936Z,108.77
2019-04-04T23:15:42.180Z,108.53
2019-04-04T23:18:15.038Z,100.93
2019-04-04T23:20:45.588Z,105.37
2019-04-04T23:23:16.198Z,106.80
2019-04-04T23:25:46.930Z,105.67
2019-04-04T23:28:21.052Z,102.20
2019-04-04T23:30:53.826Z,101.17
2019-04-04T23:33:25.679Z,99.33
2019-04-04T23:35:59.951Z,104.07
2019-04-04T23:38:39.610Z,101.63
2019-04-04T23:41:09.229Z,98.20
2019-04-04T23:43:42.817Z,92.90
2019-04-04T23:46:13.300Z,95.50
2019-04-04T23:48:46.698Z,138.80
2019-04-04T23:51:19.408Z,91.87
2019-04-04T23:53:50.465Z,98.97
2019-04-04T23:56:26.741Z,95.23
2019-04-04T23:58:57.457Z,106.83
